Time;durP1;ratioP1;P1;durP2;ratioP2;P2;SDS_P1;SDS_P2;PMS_P1;PMS_P2;Temp;Humidity;BMP_temperature;BMP_pressure;BME280_temperature;BME280_humidity;BME280_pressure;Samples;Min_cycle;Max_cycle;Signal;HPM_P1;HPM_P2
2023/08/21 00:00:29;;;;;;;;;;;;;;;20.18;81.01;101793.96;108578;1268;58990;-79
2023/08/21 00:03:15;;;;;;;;;;;;;;;20.18;81.13;101791.11;108559;1264;124830;-79
2023/08/21 00:05:42;;;;;;;;;;;;;;;20.15;81.13;101788.61;108605;1264;74729;-79
2023/08/21 00:08:08;;;;;;;;;;;;;;;20.15;81.24;101792.70;108526;1264;125162;-79
2023/08/21 00:10:37;;;;;;;;;;;;;;;20.13;81.28;101791.80;108579;1264;73242;-79
2023/08/21 00:13:03;;;;;;;;;;;;;;;20.10;81.31;101786.27;108636;1264;58919;-79
2023/08/21 00:15:30;;;;;;;;;;;;;;;20.06;81.24;101784.66;108532;1267;125327;-79
2023/08/21 00:17:56;;;;;;;;;;;;;;;20.00;81.28;101784.13;108647;1264;59611;-79
2023/08/21 00:20:23;;;;;;;;;;;;;;;19.96;81.39;101790.35;108553;1267;125259;-79
2023/08/21 00:22:49;;;;;;;;;;;;;;;19.94;81.66;101792.48;108664;1264;72706;-81
2023/08/21 00:25:16;;;;;;;;;;;;;;;19.94;81.73;101795.69;108662;1267;59104;-80
2023/08/21 00:27:42;;;;;;;;;;;;;;;19.91;81.71;101784.63;108546;1264;124733;-81
2023/08/21 00:30:09;;;;;;;;;;;;;;;19.87;81.69;101788.17;108641;1268;58965;-79
2023/08/21 00:32:35;;;;;;;;;;;;;;;19.84;81.86;101790.12;108528;1264;126320;-80
2023/08/21 00:35:02;;;;;;;;;;;;;;;19.81;81.94;101783.17;108669;1264;59183;-78
2023/08/21 00:37:28;;;;;;;;;;;;;;;19.76;82.00;101782.80;108626;1264;58915;-79
2023/08/21 00:39:55;;;;;;;;;;;;;;;19.71;81.83;101783.47;108426;1263;124790;-78
2023/08/21 00:42:21;;;;;;;;;;;;;;;19.62;81.72;101788.23;108625;1264;73399;-79
2023/08/21 00:44:48;;;;;;;;;;;;;;;19.52;81.83;101789.79;108540;1264;124861;-78
2023/08/21 00:47:14;;;;;;;;;;;;;;;19.43;81.90;101784.23;108610;1264;59009;-79
2023/08/21 00:49:41;;;;;;;;;;;;;;;19.35;82.00;101779.56;108629;1263;59171;-79
2023/08/21 00:52:08;;;;;;;;;;;;;;;19.27;82.16;101780.59;108564;1264;125118;-79
2023/08/21 00:54:35;;;;;;;;;;;;;;;19.20;82.38;101781.08;108494;1264;73523;-78
2023/08/21 00:57:02;;;;;;;;;;;;;;;19.15;82.55;101783.02;108459;1264;124925;-78
2023/08/21 00:59:29;;;;;;;;;;;;;;;19.09;82.68;101781.20;108623;1267;72326;-79
2023/08/21 01:01:55;;;;;;;;;;;;;;;19.03;82.74;101781.52;108529;1264;125470;-78
2023/08/21 01:04:22;;;;;;;;;;;;;;;18.98;82.95;101778.09;108663;1265;58956;-78
2023/08/21 01:06:49;;;;;;;;;;;;;;;18.94;83.12;101778.95;108637;1264;74492;-79
2023/08/21 01:09:15;;;;;;;;;;;;;;;18.90;83.13;101779.82;108416;1263;124954;-79
2023/08/21 01:11:50;;;;;;;;;;;;;;;18.85;83.32;101776.58;108649;1263;72109;-79
2023/08/21 01:14:21;;;;;;;;;;;;;;;18.80;83.41;101776.71;108426;1264;125740;-79
2023/08/21 01:16:47;;;;;;;;;;;;;;;18.76;83.44;101774.70;108586;1263;59082;-78
2023/08/21 01:19:21;;;;;;;;;;;;;;;18.71;83.60;101774.48;108583;1264;74553;-78
2023/08/21 01:21:47;;;;;;;;;;;;;;;18.67;83.61;101778.02;108453;1267;125365;-78
2023/08/21 01:24:14;;;;;;;;;;;;;;;18.63;83.64;101780.48;108615;1264;59233;-78
2023/08/21 01:26:40;;;;;;;;;;;;;;;18.59;83.73;101779.20;108446;1268;125619;-78
2023/08/21 01:29:07;;;;;;;;;;;;;;;18.56;83.78;101783.08;108582;1264;59279;-78
2023/08/21 01:31:33;;;;;;;;;;;;;;;18.51;83.80;101779.48;108634;1267;58950;-78
2023/08/21 01:34:01;;;;;;;;;;;;;;;18.46;83.85;101780.86;108565;1263;124775;-78
2023/08/21 01:36:28;;;;;;;;;;;;;;;18.42;84.03;101783.32;108629;1264;72376;-78
2023/08/21 01:38:54;;;;;;;;;;;;;;;18.39;84.09;101786.14;108356;1263;125016;-78
2023/08/21 01:41:23;;;;;;;;;;;;;;;18.36;84.17;101787.16;108647;1263;59842;-78
2023/08/21 01:43:50;;;;;;;;;;;;;;;18.33;84.24;101789.45;108640;1264;73422;-78
2023/08/21 01:46:16;;;;;;;;;;;;;;;18.30;84.33;101789.25;108682;1263;66389;-78
2023/08/21 01:48:43;;;;;;;;;;;;;;;18.27;84.33;101790.45;108533;1264;59164;-78
2023/08/21 01:51:09;;;;;;;;;;;;;;;18.23;84.46;101788.99;108535;1263;124736;-78
2023/08/21 01:53:35;;;;;;;;;;;;;;;18.20;84.51;101784.53;108614;1263;59021;-78
2023/08/21 01:56:02;;;;;;;;;;;;;;;18.16;84.70;101786.08;108480;1263;125155;-78
2023/08/21 01:58:28;;;;;;;;;;;;;;;18.13;84.76;101785.70;108659;1264;59719;-78
2023/08/21 02:00:55;;;;;;;;;;;;;;;18.10;84.88;101787.80;108535;1264;72932;-78
2023/08/21 02:03:24;;;;;;;;;;;;;;;18.08;84.89;101790.62;108462;1263;125363;-79
2023/08/21 02:05:55;;;;;;;;;;;;;;;18.05;85.06;101788.45;108633;1264;60155;-79
2023/08/21 02:08:22;;;;;;;;;;;;;;;18.04;85.12;101790.22;108391;1264;126073;-78
2023/08/21 02:10:51;;;;;;;;;;;;;;;18.02;85.21;101792.52;108550;1263;59084;-78
2023/08/21 02:13:18;;;;;;;;;;;;;;;18.01;85.14;101788.95;108642;1263;72860;-79
2023/08/21 02:15:44;;;;;;;;;;;;;;;18.01;85.35;101792.84;108391;1263;124970;-79
2023/08/21 02:18:11;;;;;;;;;;;;;;;18.04;85.66;101792.17;108588;1263;59561;-79
2023/08/21 02:20:37;;;;;;;;;;;;;;;18.08;85.70;101790.08;108509;1263;124945;-78
2023/08/21 02:23:04;;;;;;;;;;;;;;;18.11;85.68;101790.81;108641;1263;59018;-78
2023/08/21 02:25:31;;;;;;;;;;;;;;;18.11;85.52;101793.30;108632;1263;58982;-78
2023/08/21 02:27:57;;;;;;;;;;;;;;;18.13;85.70;101795.46;108499;1263;125582;-78
2023/08/21 02:30:27;;;;;;;;;;;;;;;18.15;85.72;101795.85;108629;1263;59070;-78
2023/08/21 02:32:53;;;;;;;;;;;;;;;18.19;85.77;101796.41;108546;1262;125504;-77
2023/08/21 02:35:20;;;;;;;;;;;;;;;18.21;85.66;101796.63;108558;1263;66557;-78
2023/08/21 02:37:46;;;;;;;;;;;;;;;18.21;85.44;101793.07;108618;1263;72445;-77
2023/08/21 02:40:13;;;;;;;;;;;;;;;18.17;85.21;101791.60;108406;1263;125144;-78
2023/08/21 02:42:39;;;;;;;;;;;;;;;18.11;85.03;101788.88;108658;1264;58923;-78
2023/08/21 02:45:09;;;;;;;;;;;;;;;18.07;85.05;101787.77;108509;1264;125191;-77
2023/08/21 02:47:36;;;;;;;;;;;;;;;18.02;84.88;101792.52;108651;1263;66318;-77
2023/08/21 02:50:03;;;;;;;;;;;;;;;17.98;84.85;101792.99;108515;1264;124929;-77
2023/08/21 02:52:30;;;;;;;;;;;;;;;17.91;84.73;101792.91;108642;1263;58915;-78
2023/08/21 02:54:57;;;;;;;;;;;;;;;17.84;84.65;101796.55;108593;1263;61009;-78
2023/08/21 02:57:27;;;;;;;;;;;;;;;17.78;84.65;101800.37;108511;1264;125239;-79
2023/08/21 02:59:53;;;;;;;;;;;;;;;17.73;84.63;101794.44;108656;1263;67106;-78
2023/08/21 03:02:20;;;;;;;;;;;;;;;17.66;84.65;101794.01;108538;1263;124964;-78
2023/08/21 03:04:47;;;;;;;;;;;;;;;17.60;84.71;101793.22;108593;1264;58908;-77
2023/08/21 03:07:14;;;;;;;;;;;;;;;17.58;84.87;101797.80;108642;1264;59836;-77
2023/08/21 03:09:41;;;;;;;;;;;;;;;17.54;84.80;101797.94;108545;1264;124784;-77
2023/08/21 03:12:07;;;;;;;;;;;;;;;17.48;84.81;101796.26;108582;1264;66280;-77
2023/08/21 03:14:34;;;;;;;;;;;;;;;17.42;84.71;101799.21;108469;1263;125484;-77
2023/08/21 03:17:01;;;;;;;;;;;;;;;17.37;84.84;101797.71;108662;1263;59632;-78
2023/08/21 03:19:27;;;;;;;;;;;;;;;17.33;84.82;101799.25;108698;1263;60156;-79
2023/08/21 03:21:54;;;;;;;;;;;;;;;17.27;84.82;101802.73;108551;1264;125011;-79
2023/08/21 03:24:21;;;;;;;;;;;;;;;17.23;84.95;101803.55;108573;1263;66523;-77
2023/08/21 03:26:47;;;;;;;;;;;;;;;17.17;84.92;101798.48;108550;1263;125083;-78
2023/08/21 03:29:14;;;;;;;;;;;;;;;17.12;85.06;101798.24;108619;1263;59598;-78
2023/08/21 03:31:40;;;;;;;;;;;;;;;17.08;85.14;101798.54;108664;1263;59832;-77
2023/08/21 03:34:08;;;;;;;;;;;;;;;17.02;84.95;101793.84;108586;1263;124941;-78
2023/08/21 03:36:37;;;;;;;;;;;;;;;16.99;85.20;101790.96;108606;1263;65017;-79
2023/08/21 03:39:06;;;;;;;;;;;;;;;16.99;85.22;101787.23;108542;1263;125153;-78
2023/08/21 03:41:32;;;;;;;;;;;;;;;16.97;85.23;101782.42;108647;1263;59540;-79
2023/08/21 03:43:59;;;;;;;;;;;;;;;16.97;85.25;101776.73;108562;1263;125350;-77
2023/08/21 03:46:25;;;;;;;;;;;;;;;16.95;85.25;101774.05;108541;1263;73435;-79
2023/08/21 03:48:52;;;;;;;;;;;;;;;16.94;85.21;101770.13;108641;1263;59079;-79
2023/08/21 03:51:18;;;;;;;;;;;;;;;16.93;85.31;101769.08;108499;1263;124933;-79
2023/08/21 03:53:45;;;;;;;;;;;;;;;16.95;85.34;101766.95;108662;1264;58963;-78
2023/08/21 03:56:11;;;;;;;;;;;;;;;17.06;85.98;101770.15;108549;1263;125041;-78
2023/08/21 03:58:38;;;;;;;;;;;;;;;17.71;88.30;101767.79;108634;1263;73073;-78
2023/08/21 04:01:04;;;;;;;;;;;;;;;18.76;88.97;101775.24;108511;1264;59078;-78
2023/08/21 04:03:31;;;;;;;;;;;;;;;19.88;88.46;101770.70;108554;1264;125094;-78
2023/08/21 04:05:58;;;;;;;;;;;;;;;21.01;87.10;101767.39;108634;1264;58897;-78
2023/08/21 04:08:25;;;;;;;;;;;;;;;22.14;85.68;101766.23;108563;1263;125198;-78
2023/08/21 04:10:59;;;;;;;;;;;;;;;23.22;83.63;101767.10;108676;1264;59195;-78
2023/08/21 04:13:25;;;;;;;;;;;;;;;24.26;81.34;101762.70;108672;1264;66455;-78
2023/08/21 04:15:53;;;;;;;;;;;;;;;25.17;79.38;101760.04;108562;1264;125258;-78
2023/08/21 04:18:19;;;;;;;;;;;;;;;26.06;77.56;101761.04;108605;1264;59429;-79
2023/08/21 04:20:49;;;;;;;;;;;;;;;26.94;75.96;101760.51;108554;1264;124762;-79
2023/08/21 04:23:15;;;;;;;;;;;;;;;27.81;73.82;101757.83;108656;1263;74703;-79
2023/08/21 04:25:42;;;;;;;;;;;;;;;28.55;71.81;101754.89;108660;1264;64672;-79
2023/08/21 04:28:09;;;;;;;;;;;;;;;29.18;70.08;101757.23;108578;1263;123382;-79
2023/08/21 04:30:36;;;;;;;;;;;;;;;29.85;68.47;101756.33;108630;1263;59690;-81
2023/08/21 04:33:02;;;;;;;;;;;;;;;30.49;66.90;101761.71;108557;1264;124443;-81
2023/08/21 04:35:29;;;;;;;;;;;;;;;31.13;65.32;101762.20;108666;1263;65993;-81
2023/08/21 04:37:55;;;;;;;;;;;;;;;31.76;63.83;101766.71;108567;1263;124252;-79
2023/08/21 04:40:23;;;;;;;;;;;;;;;32.31;62.15;101766.59;108664;1263;58955;-79
2023/08/21 04:42:50;;;;;;;;;;;;;;;32.82;60.79;101764.20;108485;1266;59253;-79
2023/08/21 04:45:16;;;;;;;;;;;;;;;33.28;59.19;101766.65;108578;1263;125117;-79
2023/08/21 04:47:43;;;;;;;;;;;;;;;33.65;57.90;101765.55;108641;1263;65906;-79
2023/08/21 04:50:09;;;;;;;;;;;;;;;34.14;56.72;101768.59;108590;1263;124428;-78
2023/08/21 04:52:36;;;;;;;;;;;;;;;34.58;55.43;101772.08;108655;1264;63827;-79
2023/08/21 04:55:02;;;;;;;;;;;;;;;34.88;54.03;101766.22;108545;1263;58928;-80
2023/08/21 04:57:29;;;;;;;;;;;;;;;35.12;52.79;101764.04;108528;1264;124519;-79
2023/08/21 04:59:55;;;;;;;;;;;;;;;35.44;51.70;101763.11;108506;1263;64645;-80
2023/08/21 05:02:22;;;;;;;;;;;;;;;35.80;50.51;101763.00;108597;1263;124208;-80
2023/08/21 05:04:48;;;;;;;;;;;;;;;36.16;49.84;101764.48;108648;1263;59024;-79
2023/08/21 05:07:15;;;;;;;;;;;;;;;36.46;48.89;101760.48;108695;1263;59196;-82
2023/08/21 05:09:42;;;;;;;;;;;;;;;36.76;48.06;101760.38;108623;1264;124242;-86
2023/08/21 05:12:08;;;;;;;;;;;;;;;37.23;47.30;101760.40;108721;1263;66241;-80
2023/08/21 05:14:35;;;;;;;;;;;;;;;37.64;46.23;101756.53;108457;1264;124344;-79
2023/08/21 05:17:01;;;;;;;;;;;;;;;37.93;45.48;101757.37;108656;1263;63968;-79
2023/08/21 05:19:28;;;;;;;;;;;;;;;38.01;44.38;101760.20;108666;1264;58981;-79
2023/08/21 05:21:54;;;;;;;;;;;;;;;37.86;43.39;101759.11;108534;1263;124246;-79
2023/08/21 05:24:21;;;;;;;;;;;;;;;37.17;42.56;101758.42;108670;1263;64789;-79
2023/08/21 05:26:47;;;;;;;;;;;;;;;35.82;42.07;101758.81;108471;1264;124545;-79
2023/08/21 05:29:14;;;;;;;;;;;;;;;34.20;42.15;101759.27;108661;1263;64755;-79
2023/08/21 05:31:40;;;;;;;;;;;;;;;32.68;42.65;101758.48;108692;1263;59012;-80
2023/08/21 05:34:07;;;;;;;;;;;;;;;31.30;43.60;101763.55;108567;1263;126484;-78
2023/08/21 05:36:33;;;;;;;;;;;;;;;30.16;44.57;101767.17;108680;1263;65840;-78
2023/08/21 05:39:01;;;;;;;;;;;;;;;29.16;45.58;101767.58;108582;1264;124456;-79
2023/08/21 05:41:28;;;;;;;;;;;;;;;28.25;46.44;101772.86;108557;1262;62502;-79
2023/08/21 05:43:54;;;;;;;;;;;;;;;27.44;47.56;101777.12;108577;1263;124483;-79
2023/08/21 05:46:21;;;;;;;;;;;;;;;26.86;48.32;101781.05;108648;1263;59069;-79
2023/08/21 05:48:47;;;;;;;;;;;;;;;26.29;49.25;101787.15;108660;1263;59179;-79
2023/08/21 05:51:14;;;;;;;;;;;;;;;25.70;49.94;101784.69;108586;1263;124078;-79
2023/08/21 05:53:40;;;;;;;;;;;;;;;25.14;50.65;101787.07;108657;1263;59452;-79
2023/08/21 05:56:07;;;;;;;;;;;;;;;24.73;51.49;101786.19;108568;1263;124981;-78
2023/08/21 05:58:33;;;;;;;;;;;;;;;24.45;52.28;101790.56;108699;1263;59060;-78
2023/08/21 06:01:00;;;;;;;;;;;;;;;24.18;53.01;101795.83;108577;1263;74440;-79
2023/08/21 06:03:26;;;;;;;;;;;;;;;23.93;53.54;101803.89;108540;1263;124426;-79
2023/08/21 06:05:53;;;;;;;;;;;;;;;23.71;54.18;101803.42;108641;1263;71423;-79
2023/08/21 06:08:19;;;;;;;;;;;;;;;23.61;54.78;101807.32;108501;1263;124321;-80
2023/08/21 06:10:50;;;;;;;;;;;;;;;23.60;55.26;101806.79;108625;1264;58924;-79
2023/08/21 06:13:17;;;;;;;;;;;;;;;23.72;55.61;101810.59;108679;1263;74708;-78
2023/08/21 06:15:44;;;;;;;;;;;;;;;23.71;55.59;101818.66;108512;1263;126392;-78
2023/08/21 06:18:11;;;;;;;;;;;;;;;23.65;55.64;101815.86;108674;1262;71418;-78
2023/08/21 06:20:37;;;;;;;;;;;;;;;23.55;55.66;101817.23;108604;1263;124582;-79
2023/08/21 06:23:04;;;;;;;;;;;;;;;23.50;56.31;101818.91;108700;1263;58943;-79
2023/08/21 06:25:32;;;;;;;;;;;;;;;23.60;56.58;101817.00;108675;1263;73358;-79
2023/08/21 06:27:58;;;;;;;;;;;;;;;23.66;56.62;101818.01;108585;1263;125410;-79
2023/08/21 06:30:28;;;;;;;;;;;;;;;23.58;56.71;101814.35;108538;1263;59106;-79
2023/08/21 06:32:54;;;;;;;;;;;;;;;23.48;56.66;101812.67;108552;1263;124114;-79
2023/08/21 06:35:21;;;;;;;;;;;;;;;23.42;56.96;101811.84;108661;1264;59051;-79
2023/08/21 06:37:47;;;;;;;;;;;;;;;23.30;57.18;101811.62;108680;1264;73398;-79
2023/08/21 06:40:14;;;;;;;;;;;;;;;23.18;57.37;101807.10;108593;1263;125348;-78
2023/08/21 06:42:40;;;;;;;;;;;;;;;23.10;57.63;101805.56;108684;1263;72737;-79
2023/08/21 06:45:07;;;;;;;;;;;;;;;23.03;57.78;101809.56;108399;1264;124241;-80
2023/08/21 06:47:34;;;;;;;;;;;;;;;22.83;57.68;101814.02;108665;1263;59168;-80
2023/08/21 06:50:00;;;;;;;;;;;;;;;22.66;58.23;101816.52;108573;1264;124442;-80
2023/08/21 06:52:27;;;;;;;;;;;;;;;22.55;58.61;101819.63;108695;1263;64817;-79
2023/08/21 06:54:53;;;;;;;;;;;;;;;22.42;58.49;101822.95;108650;1262;59037;-80
2023/08/21 06:57:20;;;;;;;;;;;;;;;22.32;58.75;101820.87;108575;1263;124086;-82
2023/08/21 06:59:46;;;;;;;;;;;;;;;22.25;59.01;101825.17;108676;1264;59100;-81
2023/08/21 07:02:13;;;;;;;;;;;;;;;22.18;59.09;101820.91;108575;1263;124160;-81
2023/08/21 07:04:39;;;;;;;;;;;;;;;22.10;59.41;101818.48;108718;1263;65274;-81
2023/08/21 07:07:06;;;;;;;;;;;;;;;22.06;59.81;101817.41;108678;1263;59158;-81
2023/08/21 07:09:32;;;;;;;;;;;;;;;22.06;59.83;101818.30;108535;1263;124235;-81
2023/08/21 07:11:59;;;;;;;;;;;;;;;22.00;59.92;101818.16;108660;1264;59020;-80
2023/08/21 07:14:25;;;;;;;;;;;;;;;21.97;59.99;101814.97;108592;1264;124167;-80
2023/08/21 07:16:52;;;;;;;;;;;;;;;21.98;60.00;101815.13;108644;1263;59134;-80
2023/08/21 07:19:18;;;;;;;;;;;;;;;21.97;59.99;101822.64;108670;1262;59451;-80
2023/08/21 07:21:45;;;;;;;;;;;;;;;21.94;60.00;101822.67;108532;1264;124232;-80
2023/08/21 07:24:11;;;;;;;;;;;;;;;21.89;59.95;101822.52;108636;1263;59089;-79
2023/08/21 07:26:38;;;;;;;;;;;;;;;21.90;60.31;101822.52;108533;1263;124203;-80
2023/08/21 07:29:04;;;;;;;;;;;;;;;21.92;60.38;101820.17;108611;1263;66211;-80
2023/08/21 07:31:31;;;;;;;;;;;;;;;21.95;60.63;101817.11;108535;1264;72742;-80
2023/08/21 07:33:57;;;;;;;;;;;;;;;21.93;60.15;101820.70;108569;1264;124128;-79
2023/08/21 07:36:24;;;;;;;;;;;;;;;21.84;60.10;101820.92;108673;1264;60157;-80
2023/08/21 07:38:50;;;;;;;;;;;;;;;21.76;60.34;101819.70;108559;1262;124229;-79
2023/08/21 07:41:17;;;;;;;;;;;;;;;21.78;60.69;101822.02;108654;1263;59048;-80
2023/08/21 07:43:43;;;;;;;;;;;;;;;21.82;60.74;101816.11;108662;1263;72550;-80
2023/08/21 07:46:15;;;;;;;;;;;;;;;21.88;60.86;101814.30;108489;1264;124559;-80
2023/08/21 07:48:42;;;;;;;;;;;;;;;21.94;60.91;101812.48;108645;1264;59060;-80
2023/08/21 07:51:09;;;;;;;;;;;;;;;21.95;60.81;101806.04;108529;1263;124438;-80
2023/08/21 07:53:35;;;;;;;;;;;;;;;21.98;60.88;101806.38;108654;1263;58902;-80
2023/08/21 07:56:03;;;;;;;;;;;;;;;22.02;60.94;101800.46;108521;1263;124915;-78
2023/08/21 07:58:30;;;;;;;;;;;;;;;22.07;61.01;101802.73;108516;1263;59302;-78
2023/08/21 08:00:57;;;;;;;;;;;;;;;22.14;61.01;101807.00;108619;1263;59033;-78
2023/08/21 08:03:23;;;;;;;;;;;;;;;22.16;60.85;101809.86;108345;1263;124489;-79
2023/08/21 08:05:49;;;;;;;;;;;;;;;22.18;60.72;101813.23;108585;1263;58975;-77
2023/08/21 08:08:16;;;;;;;;;;;;;;;22.24;60.88;101811.96;108516;1263;124739;-78
2023/08/21 08:10:44;;;;;;;;;;;;;;;22.37;60.88;101815.45;108663;1263;59466;-78
2023/08/21 08:13:10;;;;;;;;;;;;;;;22.54;60.82;101812.83;108647;1263;59038;-78
2023/08/21 08:15:37;;;;;;;;;;;;;;;22.59;60.20;101811.90;108536;1263;124135;-79
2023/08/21 08:18:05;;;;;;;;;;;;;;;22.58;60.13;101807.45;108540;1263;66301;-79
2023/08/21 08:20:31;;;;;;;;;;;;;;;22.62;60.24;101806.88;108537;1263;124276;-78
2023/08/21 08:22:58;;;;;;;;;;;;;;;22.60;59.99;101805.63;108607;1264;59059;-80
2023/08/21 08:25:24;;;;;;;;;;;;;;;22.58;59.78;101807.08;108486;1263;58976;-79
2023/08/21 08:27:51;;;;;;;;;;;;;;;22.55;59.69;101804.25;108540;1263;124006;-80
2023/08/21 08:30:18;;;;;;;;;;;;;;;22.46;59.51;101798.58;108601;1264;66022;-79
2023/08/21 08:32:44;;;;;;;;;;;;;;;22.45;59.94;101801.63;108425;1264;124093;-79
2023/08/21 08:35:12;;;;;;;;;;;;;;;22.52;60.04;101807.14;108544;1264;58960;-79
2023/08/21 08:37:39;;;;;;;;;;;;;;;22.57;59.73;101811.75;108669;1263;59161;-79
2023/08/21 08:40:05;;;;;;;;;;;;;;;22.57;59.48;101808.71;108475;1264;124511;-81
2023/08/21 08:42:32;;;;;;;;;;;;;;;22.57;59.62;101811.39;108595;1263;65546;-79
2023/08/21 08:44:58;;;;;;;;;;;;;;;22.58;59.62;101808.15;108378;1265;124201;-81
2023/08/21 08:47:25;;;;;;;;;;;;;;;22.63;59.52;101804.54;108605;1264;59084;-79
2023/08/21 08:49:51;;;;;;;;;;;;;;;22.70;59.72;101801.98;108473;1264;125288;-79
2023/08/21 08:52:19;;;;;;;;;;;;;;;22.79;59.49;101804.22;108630;1264;58964;-81
2023/08/21 08:54:46;;;;;;;;;;;;;;;22.83;59.06;101803.29;108642;1263;65019;-80
2023/08/21 08:57:13;;;;;;;;;;;;;;;22.84;58.70;101804.00;108518;1264;124861;-80
2023/08/21 08:59:39;;;;;;;;;;;;;;;22.83;58.84;101805.08;108632;1264;59192;-80
2023/08/21 09:02:06;;;;;;;;;;;;;;;22.87;58.84;101800.21;108558;1264;124367;-80
2023/08/21 09:04:32;;;;;;;;;;;;;;;22.95;58.78;101795.30;108642;1264;60592;-79
2023/08/21 09:07:08;;;;;;;;;;;;;;;23.02;58.50;101788.08;108516;1264;65283;-80
2023/08/21 09:09:39;;;;;;;;;;;;;;;23.09;58.61;101788.73;108520;1264;124045;-80
2023/08/21 09:12:14;;;;;;;;;;;;;;;23.18;58.69;101792.06;108652;1263;59618;-80
2023/08/21 09:14:41;;;;;;;;;;;;;;;23.26;58.58;101793.56;108392;1263;124382;-80
2023/08/21 09:17:07;;;;;;;;;;;;;;;23.31;58.53;101792.63;108572;1263;74814;-80
2023/08/21 09:19:34;;;;;;;;;;;;;;;23.36;58.60;101789.70;108528;1263;64990;-80
2023/08/21 09:22:07;;;;;;;;;;;;;;;23.41;58.05;101793.77;108526;1263;124058;-80
2023/08/21 09:24:34;;;;;;;;;;;;;;;23.42;57.44;101788.02;108554;1264;59022;-80
2023/08/21 09:27:01;;;;;;;;;;;;;;;23.45;57.09;101783.69;108519;1263;124105;-79
2023/08/21 09:29:33;;;;;;;;;;;;;;;23.50;57.15;101788.09;108602;1263;72137;-79
2023/08/21 09:31:59;;;;;;;;;;;;;;;23.57;56.92;101791.96;108469;1263;124313;-80
2023/08/21 09:34:26;;;;;;;;;;;;;;;23.65;56.84;101782.91;108659;1263;72217;-80
2023/08/21 09:36:54;;;;;;;;;;;;;;;23.74;56.87;101776.15;108536;1263;58997;-80
2023/08/21 09:39:21;;;;;;;;;;;;;;;23.77;56.51;101782.04;108559;1266;124662;-80
2023/08/21 09:41:56;;;;;;;;;;;;;;;23.75;55.91;101777.40;108644;1264;74516;-79
2023/08/21 09:44:22;;;;;;;;;;;;;;;23.75;55.73;101777.21;108573;1264;124396;-80
2023/08/21 09:46:49;;;;;;;;;;;;;;;23.79;55.57;101780.41;108557;1264;71420;-80
2023/08/21 09:49:16;;;;;;;;;;;;;;;23.94;55.82;101773.77;108565;1263;59334;-81
2023/08/21 09:51:44;;;;;;;;;;;;;;;24.23;56.20;101772.42;108489;1263;126250;-81
2023/08/21 09:54:11;;;;;;;;;;;;;;;24.50;56.02;101770.77;108648;1264;74803;-80
2023/08/21 09:56:37;;;;;;;;;;;;;;;24.61;55.24;101770.58;108530;1264;124720;-80
2023/08/21 09:59:04;;;;;;;;;;;;;;;24.59;54.70;101770.98;108637;1264;71494;-80
2023/08/21 10:01:30;;;;;;;;;;;;;;;24.54;54.41;101767.47;108560;1263;58995;-79
2023/08/21 10:03:57;;;;;;;;;;;;;;;24.53;54.91;101763.91;108524;1264;124304;-80
2023/08/21 10:06:23;;;;;;;;;;;;;;;24.64;54.78;101765.70;108572;1263;73471;-80
2023/08/21 10:08:51;;;;;;;;;;;;;;;24.76;54.56;101757.23;108578;1263;124200;-79
2023/08/21 10:11:17;;;;;;;;;;;;;;;24.81;54.31;101759.46;108578;1263;73222;-80
2023/08/21 10:13:44;;;;;;;;;;;;;;;24.83;54.16;101759.08;108663;1264;58998;-80
2023/08/21 10:16:11;;;;;;;;;;;;;;;24.86;54.11;101760.98;108585;1263;123858;-80
2023/08/21 10:18:37;;;;;;;;;;;;;;;24.80;53.13;101758.95;108547;1263;73772;-79
2023/08/21 10:21:11;;;;;;;;;;;;;;;24.74;53.11;101752.06;108587;1264;124473;-79
2023/08/21 10:23:37;;;;;;;;;;;;;;;24.84;53.08;101750.96;108643;1263;71419;-79
2023/08/21 10:26:08;;;;;;;;;;;;;;;24.93;53.22;101749.20;108548;1264;124134;-78
2023/08/21 10:28:41;;;;;;;;;;;;;;;25.06;53.51;101749.12;108637;1263;60291;-79
2023/08/21 10:31:28;;;;;;;;;;;;;;;25.23;53.24;101751.67;108644;1263;74690;-79
2023/08/21 10:33:55;;;;;;;;;;;;;;;25.44;53.13;101748.21;108563;1263;124665;-80
2023/08/21 10:36:40;;;;;;;;;;;;;;;25.60;52.78;101746.61;108519;1265;72225;-80
2023/08/21 10:39:14;;;;;;;;;;;;;;;25.75;52.63;101747.89;108463;1262;124302;-80
2023/08/21 10:41:41;;;;;;;;;;;;;;;25.84;52.19;101751.66;108634;1264;60343;-80
2023/08/21 10:44:08;;;;;;;;;;;;;;;25.92;51.95;101753.30;108561;1264;124882;-81
2023/08/21 10:46:50;;;;;;;;;;;;;;;25.96;51.61;101749.42;108506;1263;66274;-80
2023/08/21 10:49:16;;;;;;;;;;;;;;;25.92;51.58;101752.39;108608;1263;71462;-80
2023/08/21 10:51:43;;;;;;;;;;;;;;;25.86;51.47;101756.65;108500;1263;124328;-80
2023/08/21 10:54:13;;;;;;;;;;;;;;;25.89;51.49;101756.58;108516;1264;59134;-78
2023/08/21 10:56:39;;;;;;;;;;;;;;;26.03;51.43;101756.98;108525;1264;124265;-80
2023/08/21 10:59:06;;;;;;;;;;;;;;;26.29;51.26;101756.92;108681;1264;59225;-82
2023/08/21 11:01:44;;;;;;;;;;;;;;;26.59;51.17;101759.05;108626;1263;59457;-82
2023/08/21 11:04:11;;;;;;;;;;;;;;;26.83;50.93;101756.09;108540;1264;124329;-82
2023/08/21 11:06:39;;;;;;;;;;;;;;;27.02;50.06;101752.70;108653;1263;59031;-82
2023/08/21 11:09:05;;;;;;;;;;;;;;;27.16;49.70;101756.27;108433;1264;124408;-82
2023/08/21 11:11:34;;;;;;;;;;;;;;;27.37;49.64;101754.80;108687;1263;58948;-80
2023/08/21 11:14:01;;;;;;;;;;;;;;;27.54;49.19;101753.23;108510;1263;124418;-80
2023/08/21 11:16:27;;;;;;;;;;;;;;;27.60;48.70;101755.74;108568;1264;59374;-82
2023/08/21 11:18:54;;;;;;;;;;;;;;;27.61;48.41;101754.11;108571;1263;59047;-82
2023/08/21 11:21:20;;;;;;;;;;;;;;;27.49;47.98;101755.36;108563;1264;124548;-82
2023/08/21 11:23:46;;;;;;;;;;;;;;;27.22;47.68;101755.05;108584;1264;59083;-82
2023/08/21 11:26:13;;;;;;;;;;;;;;;26.93;47.94;101753.84;108553;1264;124697;-80
2023/08/21 11:28:39;;;;;;;;;;;;;;;26.75;48.07;101750.75;108687;1264;59029;-82
2023/08/21 11:31:06;;;;;;;;;;;;;;;26.74;48.53;101747.17;108669;1263;60153;-80
2023/08/21 11:33:32;;;;;;;;;;;;;;;27.01;48.71;101748.95;108455;1263;124412;-81
2023/08/21 11:35:59;;;;;;;;;;;;;;;27.32;48.70;101740.54;108685;1263;59073;-82
2023/08/21 11:38:26;;;;;;;;;;;;;;;27.52;48.15;101738.33;108461;1264;124666;-81
2023/08/21 11:40:59;;;;;;;;;;;;;;;27.64;48.11;101739.06;108567;1264;59074;-82
2023/08/21 11:43:45;;;;;;;;;;;;;;;27.77;47.68;101737.20;108476;1263;206925;-81
2023/08/21 11:46:13;;;;;;;;;;;;;;;27.94;47.26;101738.48;108492;1263;124232;-81
2023/08/21 11:48:40;;;;;;;;;;;;;;;28.03;47.01;101736.07;108594;1264;59336;-81
2023/08/21 11:51:07;;;;;;;;;;;;;;;28.02;46.65;101735.36;108526;1264;125816;-81
2023/08/21 11:53:34;;;;;;;;;;;;;;;27.95;46.26;101736.13;108561;1263;59182;-81
2023/08/21 11:56:00;;;;;;;;;;;;;;;27.78;46.14;101740.06;108586;1264;125056;-81
2023/08/21 11:58:28;;;;;;;;;;;;;;;27.64;46.44;101733.45;108640;1264;59593;-81
2023/08/21 12:00:54;;;;;;;;;;;;;;;27.58;46.27;101742.81;108550;1264;64742;-80
2023/08/21 12:03:21;;;;;;;;;;;;;;;27.52;46.34;101741.74;108454;1263;126651;-81
2023/08/21 12:05:47;;;;;;;;;;;;;;;27.55;46.28;101738.58;108591;1263;59080;-82
2023/08/21 12:08:14;;;;;;;;;;;;;;;27.63;46.24;101737.09;108421;1263;124953;-82
2023/08/21 12:10:40;;;;;;;;;;;;;;;27.81;46.32;101741.42;108525;1264;74085;-82
2023/08/21 12:13:07;;;;;;;;;;;;;;;28.07;46.31;101742.77;108511;1264;58937;-81
2023/08/21 12:15:33;;;;;;;;;;;;;;;28.29;45.64;101742.77;108529;1264;124361;-81
2023/08/21 12:18:00;;;;;;;;;;;;;;;28.41;45.31;101740.92;108480;1264;59303;-81
2023/08/21 12:20:26;;;;;;;;;;;;;;;28.48;45.05;101741.06;108576;1264;124460;-81
2023/08/21 12:22:53;;;;;;;;;;;;;;;28.41;44.49;101732.81;108586;1264;59090;-81